KHAE

Hannibal Regional Airport

Hannibal, Missouri, USA
METAR KHAE 220455Z AUTO 00000KT 10SM SCT120 19/16 A2972 RMK AO2 LTG DSNT N
Observed Flight Rules
Jun-22 @ 04:55 UTC (35 minutes ago) Visual Flight Rules
Visibility Clouds
10 miles
  • Scattered at 12,000' AGL
Temperatures Readings
Current 19°C / 66°F
Dewpoint 16°C / 61°F
Humidity 83%
Altimeter 29.72" Hg
Pressure 1006 hPa
Elevation 234
METAR KHAE 220455Z AUTO 00000KT 10SM SCT120 19/16 A2972 RMK AO2 LTG DSNT N
Observed Flight Rules
Jun-22 @ 04:55 UTC
(35 minutes ago)
VFR
Clouds
  • Scattered at 12,000' AGL
Temperature Dewpoint
19°C / 66°F 16°C / 61°F
Humidity Altimeter Pressure
83% 29.72" Hg 1006 hPa